createdAt,value
2023-02-13T00:01:08.482Z,3.50
2023-02-13T00:03:43.733Z,3.60
2023-02-13T00:06:11.043Z,4.60
2023-02-13T00:08:38.096Z,3.00
2023-02-13T00:11:06.640Z,2.30
2023-02-13T00:13:35.586Z,3.20
2023-02-13T00:16:05.266Z,5.50
2023-02-13T00:18:36.566Z,4.30
2023-02-13T00:21:06.730Z,4.40
2023-02-13T00:23:34.504Z,3.40
2023-02-13T00:26:04.611Z,6.90
2023-02-13T00:28:35.800Z,10.80
2023-02-13T00:31:09.913Z,6.40
2023-02-13T00:33:37.583Z,5.20
2023-02-13T00:36:08.335Z,4.50
2023-02-13T00:38:37.905Z,2.10
2023-02-13T00:41:06.570Z,1.60
2023-02-13T00:43:34.912Z,2.20
2023-02-13T00:46:03.869Z,1.20
2023-02-13T00:48:31.881Z,2.30
2023-02-13T00:50:59.534Z,1.70
2023-02-13T00:53:27.145Z,3.90
2023-02-13T00:55:54.023Z,4.60
2023-02-13T00:58:22.942Z,2.50
2023-02-13T01:00:52.314Z,4.80
2023-02-13T01:03:19.586Z,5.50
2023-02-13T01:05:48.295Z,4.90
2023-02-13T01:08:16.332Z,6.90
2023-02-13T01:10:45.264Z,6.50
2023-02-13T01:13:14.084Z,11.00
2023-02-13T01:15:41.188Z,4.20
2023-02-13T01:18:14.625Z,2.30
2023-02-13T01:20:43.481Z,1.40
2023-02-13T01:23:10.734Z,1.60
2023-02-13T01:25:41.365Z,1.40
2023-02-13T01:28:08.424Z,1.20
2023-02-13T01:30:37.801Z,1.60
2023-02-13T01:33:04.761Z,1.60
2023-02-13T01:35:33.222Z,1.30
2023-02-13T01:38:00.238Z,1.20
2023-02-13T01:40:29.549Z,1.30
2023-02-13T01:42:57.842Z,1.20
2023-02-13T01:45:27.754Z,1.10
2023-02-13T01:48:00.789Z,1.70
2023-02-13T01:50:52.954Z,1.80
2023-02-13T01:53:23.625Z,1.30
2023-02-13T01:56:19.975Z,2.60
2023-02-13T01:58:49.247Z,2.10
2023-02-13T02:01:20.373Z,3.90
2023-02-13T02:03:59.037Z,4.40
2023-02-13T02:06:31.075Z,2.80
2023-02-13T02:09:01.802Z,2.60
2023-02-13T02:12:01.693Z,7.00
2023-02-13T02:14:30.370Z,4.60
2023-02-13T02:17:03.039Z,2.20
2023-02-13T02:19:30.340Z,3.00
2023-02-13T02:22:22.721Z,2.20
2023-02-13T02:25:39.350Z,2.30
2023-02-13T02:28:20.544Z,2.80
2023-02-13T02:31:14.164Z,2.20
2023-02-13T02:34:07.509Z,2.30
2023-02-13T02:36:43.237Z,2.10
2023-02-13T02:39:20.501Z,1.50
2023-02-13T02:42:03.471Z,2.20
2023-02-13T02:44:54.334Z,2.30
2023-02-13T02:47:57.555Z,2.30
2023-02-13T02:50:34.201Z,2.30
2023-02-13T02:53:05.568Z,2.20
2023-02-13T02:55:55.158Z,3.40
2023-02-13T02:59:04.191Z,3.10
2023-02-13T03:01:51.160Z,2.70
2023-02-13T03:04:38.944Z,2.80
2023-02-13T03:07:07.711Z,2.50
2023-02-13T03:10:01.923Z,3.60
2023-02-13T03:13:03.136Z,2.20
2023-02-13T03:15:30.383Z,2.40
2023-02-13T03:18:16.391Z,2.90
2023-02-13T03:21:13.901Z,2.00
2023-02-13T03:24:02.276Z,2.20
2023-02-13T03:26:45.636Z,2.40
2023-02-13T03:29:43.280Z,2.70
2023-02-13T03:32:35.732Z,2.20
2023-02-13T03:35:40.611Z,1.90
2023-02-13T03:38:30.946Z,2.90
2023-02-13T03:41:20.143Z,2.50
2023-02-13T03:44:09.630Z,2.90
2023-02-13T03:46:41.474Z,2.40
2023-02-13T03:49:36.555Z,3.00
2023-02-13T03:52:31.544Z,1.90
2023-02-13T03:55:31.721Z,2.80
2023-02-13T03:58:21.049Z,2.20
2023-02-13T04:00:50.335Z,3.50
2023-02-13T04:03:30.687Z,2.40
2023-02-13T04:06:03.287Z,2.70
2023-02-13T04:08:30.220Z,2.40
2023-02-13T04:11:18.076Z,2.40
2023-02-13T04:13:46.967Z,2.40
2023-02-13T04:16:29.119Z,2.30
2023-02-13T04:18:56.247Z,1.80
2023-02-13T04:21:23.088Z,1.90
2023-02-13T04:23:51.498Z,1.90
2023-02-13T04:26:20.911Z,2.30
2023-02-13T04:28:48.063Z,6.30
2023-02-13T04:31:15.286Z,3.70
2023-02-13T04:33:43.394Z,2.40
2023-02-13T04:36:10.466Z,1.40
2023-02-13T04:38:37.864Z,1.80
2023-02-13T04:41:04.888Z,2.00
2023-02-13T04:43:32.471Z,2.30
2023-02-13T04:45:59.399Z,2.60
2023-02-13T04:48:27.859Z,2.20
2023-02-13T04:50:54.850Z,2.70
2023-02-13T04:53:22.893Z,2.30
2023-02-13T04:55:49.781Z,2.60
2023-02-13T04:58:18.047Z,2.40
2023-02-13T05:00:44.764Z,3.00
2023-02-13T05:03:12.757Z,2.70
2023-02-13T05:05:40.158Z,3.20
2023-02-13T05:08:10.503Z,3.60
2023-02-13T05:10:37.563Z,2.90
2023-02-13T05:13:06.635Z,3.40
2023-02-13T05:15:35.506Z,3.20
2023-02-13T05:18:02.452Z,3.00
2023-02-13T05:20:29.829Z,3.10
2023-02-13T05:23:16.563Z,2.50
2023-02-13T05:25:44.435Z,3.20
2023-02-13T05:28:29.770Z,2.90
2023-02-13T05:30:57.358Z,2.50
2023-02-13T05:33:25.324Z,2.70
2023-02-13T05:35:53.657Z,2.50
2023-02-13T05:38:20.688Z,2.60
2023-02-13T05:43:52.325Z,2.90
2023-02-13T05:46:21.665Z,2.00
2023-02-13T05:48:48.974Z,2.90
2023-02-13T05:51:16.659Z,3.30
2023-02-13T05:53:44.448Z,2.80
2023-02-13T05:56:11.631Z,2.30
2023-02-13T05:58:38.500Z,2.30
2023-02-13T06:01:06.578Z,2.20
2023-02-13T06:03:34.157Z,2.30
2023-02-13T06:06:04.205Z,2.50
2023-02-13T06:08:31.292Z,2.80
2023-02-13T06:11:03.023Z,2.90
2023-02-13T06:13:30.714Z,3.50
2023-02-13T06:15:57.533Z,3.70
2023-02-13T06:18:24.388Z,3.70
2023-02-13T06:20:51.806Z,4.80
2023-02-13T06:23:18.846Z,2.80
2023-02-13T06:25:48.114Z,2.60
2023-02-13T06:28:17.731Z,3.80
2023-02-13T06:30:45.027Z,2.40
2023-02-13T06:33:13.407Z,2.70
2023-02-13T06:35:45.012Z,2.20
2023-02-13T06:38:12.190Z,3.20
2023-02-13T06:40:40.047Z,4.00
2023-02-13T06:43:10.023Z,3.00
2023-02-13T06:45:37.857Z,2.40
2023-02-13T06:48:05.218Z,3.50
2023-02-13T06:50:34.238Z,2.60
2023-02-13T06:53:02.764Z,2.30
2023-02-13T06:55:30.241Z,2.00
2023-02-13T06:57:57.601Z,2.30
2023-02-13T07:00:27.191Z,2.80
2023-02-13T07:02:55.052Z,2.50
2023-02-13T07:05:22.406Z,2.30
2023-02-13T07:07:49.513Z,2.30
2023-02-13T07:10:20.146Z,4.40
2023-02-13T07:13:03.729Z,2.30
2023-02-13T07:15:33.064Z,2.30
2023-02-13T07:18:01.117Z,2.30
2023-02-13T07:20:28.961Z,3.10
2023-02-13T07:23:01.075Z,2.60
2023-02-13T07:25:29.098Z,3.90
2023-02-13T07:28:06.195Z,3.50
2023-02-13T07:30:35.063Z,2.80
2023-02-13T07:33:03.242Z,3.50
2023-02-13T07:35:31.597Z,3.20
2023-02-13T07:38:00.232Z,19.50
2023-02-13T07:40:27.287Z,10.80
2023-02-13T07:42:54.351Z,5.70
2023-02-13T07:45:21.859Z,6.30
2023-02-13T07:47:48.678Z,4.60
2023-02-13T07:50:17.494Z,4.40
2023-02-13T07:52:44.673Z,7.60
2023-02-13T07:55:12.343Z,5.60
2023-02-13T07:57:40.311Z,5.90
2023-02-13T08:00:09.234Z,7.10
2023-02-13T08:02:40.264Z,3.40
2023-02-13T08:05:07.587Z,3.80
2023-02-13T08:07:35.574Z,3.30
2023-02-13T08:10:25.831Z,10.50
2023-02-13T08:12:53.591Z,5.30
2023-02-13T08:15:20.767Z,9.70
2023-02-13T08:17:50.114Z,8.10
2023-02-13T08:20:18.297Z,4.50
2023-02-13T08:22:45.151Z,5.60
2023-02-13T08:25:12.150Z,5.10
2023-02-13T08:27:39.085Z,5.20
2023-02-13T08:30:10.313Z,5.70
2023-02-13T08:32:53.200Z,5.70
2023-02-13T08:35:26.244Z,7.90
2023-02-13T08:37:54.601Z,10.60
2023-02-13T08:40:24.495Z,14.90
2023-02-13T08:42:59.382Z,18.10
2023-02-13T08:45:26.387Z,20.70
2023-02-13T08:48:00.383Z,24.80
2023-02-13T08:50:28.734Z,22.80
2023-02-13T08:52:58.103Z,22.90
2023-02-13T08:55:27.164Z,23.70
2023-02-13T08:57:55.925Z,22.50
2023-02-13T09:00:23.587Z,23.00
2023-02-13T09:02:50.631Z,15.60
2023-02-13T09:05:17.599Z,14.40
2023-02-13T09:07:44.620Z,12.40
2023-02-13T09:10:11.660Z,9.80
2023-02-13T09:12:38.709Z,9.20
2023-02-13T09:15:08.407Z,8.60
2023-02-13T09:17:35.639Z,11.30
2023-02-13T09:20:02.909Z,9.70
2023-02-13T09:22:30.087Z,10.10
2023-02-13T09:24:58.879Z,12.50
2023-02-13T09:27:25.707Z,11.70
2023-02-13T09:29:53.029Z,10.70
2023-02-13T09:32:20.792Z,11.10
2023-02-13T09:34:48.701Z,11.20
2023-02-13T09:37:16.105Z,11.80
2023-02-13T09:39:43.124Z,14.60
2023-02-13T09:42:31.256Z,12.90
2023-02-13T09:45:02.883Z,13.90
2023-02-13T09:47:37.306Z,9.60
2023-02-13T09:50:23.475Z,6.50
2023-02-13T09:52:52.174Z,5.60
2023-02-13T09:55:39.587Z,4.30
2023-02-13T09:58:20.411Z,3.80
2023-02-13T10:00:56.097Z,3.50
2023-02-13T10:03:40.314Z,3.10
2023-02-13T10:06:49.916Z,3.70
2023-02-13T10:09:23.698Z,3.80
2023-02-13T10:12:24.347Z,3.60
2023-02-13T10:15:04.608Z,5.10
2023-02-13T10:18:12.319Z,5.40
2023-02-13T10:20:53.016Z,4.90
2023-02-13T10:23:29.606Z,5.10
2023-02-13T10:26:01.492Z,4.90
2023-02-13T10:28:47.919Z,6.50
2023-02-13T10:31:17.556Z,5.00
2023-02-13T10:33:53.672Z,4.80
2023-02-13T10:36:34.191Z,5.10
2023-02-13T10:41:54.210Z,5.60
2023-02-13T10:44:40.267Z,5.50
2023-02-13T10:47:22.351Z,5.30
2023-02-13T10:49:57.698Z,6.90
2023-02-13T10:52:44.423Z,6.50
2023-02-13T10:55:19.255Z,7.00
2023-02-13T10:58:09.674Z,6.30
2023-02-13T11:00:53.264Z,6.10
2023-02-13T11:03:25.391Z,7.80
2023-02-13T11:06:00.878Z,7.20
2023-02-13T11:08:45.605Z,7.70
2023-02-13T11:11:38.941Z,7.10
2023-02-13T11:14:19.633Z,6.70
2023-02-13T11:16:58.530Z,7.50
2023-02-13T11:19:51.397Z,6.90
2023-02-13T11:22:35.896Z,7.40
2023-02-13T11:25:17.066Z,6.80
2023-02-13T11:27:45.340Z,6.30
2023-02-13T11:30:28.112Z,6.50
2023-02-13T11:33:01.476Z,6.30
2023-02-13T11:35:30.528Z,7.70
2023-02-13T11:38:11.368Z,7.80
2023-02-13T11:40:38.897Z,7.60
2023-02-13T11:43:06.240Z,7.80
2023-02-13T11:45:33.894Z,9.20
2023-02-13T11:48:01.272Z,8.20
2023-02-13T11:50:34.778Z,6.40
2023-02-13T11:53:25.235Z,6.50
2023-02-13T11:56:05.335Z,7.90
2023-02-13T11:58:32.872Z,7.30
2023-02-13T12:01:07.743Z,7.00
2023-02-13T12:03:35.701Z,5.90
2023-02-13T12:06:07.145Z,4.90
2023-02-13T12:08:37.445Z,5.50
2023-02-13T12:11:31.008Z,6.10
2023-02-13T12:13:59.341Z,5.80
2023-02-13T12:16:40.974Z,5.60
2023-02-13T12:19:13.704Z,5.90
2023-02-13T12:22:06.547Z,6.40
2023-02-13T12:24:57.388Z,5.50
2023-02-13T12:27:48.764Z,6.20
2023-02-13T12:30:49.200Z,5.10
2023-02-13T12:33:43.631Z,4.80
2023-02-13T12:36:22.927Z,4.40
2023-02-13T12:39:06.759Z,3.70
2023-02-13T12:42:10.687Z,4.40
2023-02-13T12:44:41.506Z,4.00
2023-02-13T12:47:35.396Z,4.70
2023-02-13T12:51:00.166Z,4.00
2023-02-13T12:53:40.445Z,4.40
2023-02-13T12:56:37.844Z,3.60
2023-02-13T12:59:07.011Z,2.90
2023-02-13T13:01:52.291Z,6.60
2023-02-13T13:04:44.557Z,3.00
2023-02-13T13:07:20.103Z,3.00
2023-02-13T13:10:06.734Z,5.40
2023-02-13T13:12:55.976Z,4.90
2023-02-13T13:15:31.421Z,3.20
2023-02-13T13:18:02.445Z,4.00
2023-02-13T13:20:55.449Z,3.20
2023-02-13T13:23:32.439Z,2.90
2023-02-13T13:26:15.590Z,3.80
2023-02-13T13:28:46.520Z,3.40
2023-02-13T13:31:17.917Z,3.30
2023-02-13T13:33:45.836Z,3.30
2023-02-13T13:36:34.174Z,3.30
2023-02-13T13:39:26.143Z,3.50
2023-02-13T13:42:27.630Z,2.80
2023-02-13T13:45:01.972Z,3.80
2023-02-13T13:48:03.873Z,3.30
2023-02-13T13:50:35.411Z,2.90
2023-02-13T13:53:13.005Z,10.60
2023-02-13T13:55:46.526Z,3.50
2023-02-13T13:58:34.471Z,3.50
2023-02-13T14:01:30.025Z,3.10
2023-02-13T14:03:59.564Z,3.30
2023-02-13T14:06:45.169Z,4.30
2023-02-13T14:09:59.167Z,3.50
2023-02-13T14:12:29.538Z,3.90
2023-02-13T14:14:57.547Z,5.90
2023-02-13T14:17:44.050Z,5.10
2023-02-13T14:20:54.202Z,5.30
2023-02-13T14:23:32.530Z,4.50
2023-02-13T14:26:09.776Z,5.30
2023-02-13T14:28:39.006Z,4.10
2023-02-13T14:31:23.235Z,4.10
2023-02-13T14:34:20.092Z,4.30
2023-02-13T14:37:20.415Z,5.60
2023-02-13T14:40:29.339Z,5.30
2023-02-13T14:43:16.346Z,15.70
2023-02-13T14:45:57.121Z,4.80
2023-02-13T14:48:49.755Z,6.50
2023-02-13T14:51:28.148Z,6.30
2023-02-13T14:53:58.757Z,5.40
2023-02-13T14:56:25.824Z,5.20
2023-02-13T14:59:09.927Z,5.10
2023-02-13T15:01:58.010Z,4.60
2023-02-13T15:04:42.318Z,4.90
2023-02-13T15:07:23.772Z,5.60
2023-02-13T15:09:52.975Z,5.60
2023-02-13T15:12:36.244Z,6.40
2023-02-13T15:15:26.039Z,4.70
2023-02-13T15:18:01.417Z,5.70
2023-02-13T15:20:31.850Z,6.10
2023-02-13T15:23:01.760Z,5.20
2023-02-13T15:25:37.288Z,5.40
2023-02-13T15:28:08.941Z,5.50
2023-02-13T15:30:36.893Z,4.60
2023-02-13T15:33:20.293Z,4.80
2023-02-13T15:35:56.887Z,5.50
2023-02-13T15:38:24.818Z,4.40
2023-02-13T15:40:57.873Z,5.60
2023-02-13T15:43:35.132Z,5.30
2023-02-13T15:46:07.949Z,4.60
2023-02-13T15:48:35.322Z,5.00
2023-02-13T15:51:03.387Z,5.00
2023-02-13T15:53:31.279Z,5.40
2023-02-13T15:56:03.783Z,5.60
2023-02-13T15:58:34.108Z,8.40
2023-02-13T16:01:06.869Z,5.50
2023-02-13T16:03:35.644Z,5.20
2023-02-13T16:06:05.458Z,5.20
2023-02-13T16:08:38.829Z,5.40
2023-02-13T16:11:16.474Z,5.40
2023-02-13T16:14:01.369Z,7.30
2023-02-13T16:16:34.744Z,5.80
2023-02-13T16:19:02.479Z,8.40
2023-02-13T16:21:34.059Z,6.90
2023-02-13T16:24:03.900Z,6.60
2023-02-13T16:26:30.998Z,5.60
2023-02-13T16:28:58.681Z,6.60
2023-02-13T16:31:26.157Z,6.80
2023-02-13T16:33:54.285Z,6.20
2023-02-13T16:36:31.045Z,6.40
2023-02-13T16:39:23.618Z,6.40
2023-02-13T16:42:04.896Z,7.70
2023-02-13T16:44:47.441Z,7.60
2023-02-13T16:50:19.949Z,8.40
2023-02-13T16:52:47.860Z,8.10
2023-02-13T16:55:15.313Z,7.10
2023-02-13T16:57:43.971Z,7.60
2023-02-13T17:00:19.735Z,7.80
2023-02-13T17:05:47.573Z,6.40
2023-02-13T17:08:17.072Z,6.60
2023-02-13T17:11:05.567Z,6.40
2023-02-13T17:13:33.683Z,7.70
2023-02-13T17:16:01.186Z,7.90
2023-02-13T17:18:34.768Z,6.70
2023-02-13T17:21:02.480Z,7.60
2023-02-13T17:23:29.813Z,7.90
2023-02-13T17:25:58.490Z,7.10
2023-02-13T17:28:27.067Z,6.80
2023-02-13T17:30:56.152Z,7.50
2023-02-13T17:33:28.251Z,8.50
2023-02-13T17:35:56.086Z,8.30
2023-02-13T17:38:24.302Z,7.50
2023-02-13T17:40:52.232Z,7.60
2023-02-13T17:43:20.214Z,9.30
2023-02-13T17:45:50.768Z,8.50
2023-02-13T17:48:23.845Z,8.30
2023-02-13T17:50:51.837Z,9.30
2023-02-13T17:53:29.944Z,9.30
2023-02-13T17:56:00.921Z,9.30
2023-02-13T18:01:21.778Z,10.70
2023-02-13T18:03:50.085Z,11.90
2023-02-13T18:06:17.114Z,11.50
2023-02-13T18:08:44.928Z,12.30
2023-02-13T18:11:14.375Z,12.00
2023-02-13T18:13:47.769Z,13.30
2023-02-13T18:16:15.594Z,12.20
2023-02-13T18:18:44.238Z,12.40
2023-02-13T18:21:13.766Z,12.90
2023-02-13T18:23:42.031Z,11.10
2023-02-13T18:26:10.263Z,12.20
2023-02-13T18:28:40.147Z,11.60
2023-02-13T18:31:29.773Z,12.80
2023-02-13T18:34:01.247Z,12.60
2023-02-13T18:36:32.038Z,13.80
2023-02-13T18:38:59.132Z,12.10
2023-02-13T18:41:28.456Z,13.70
2023-02-13T18:43:58.055Z,13.30
2023-02-13T18:46:26.798Z,13.40
2023-02-13T18:48:55.272Z,15.30
2023-02-13T18:51:24.230Z,14.40
2023-02-13T18:54:06.879Z,14.90
2023-02-13T18:56:38.016Z,16.40
2023-02-13T18:59:18.696Z,15.90
2023-02-13T19:01:46.513Z,16.20
2023-02-13T19:04:20.109Z,16.60
2023-02-13T19:06:49.780Z,15.30
2023-02-13T19:09:20.823Z,13.80
2023-02-13T19:11:49.936Z,13.20
2023-02-13T19:14:18.549Z,13.40
2023-02-13T19:16:56.681Z,12.30
2023-02-13T19:19:48.511Z,13.80
2023-02-13T19:22:15.879Z,13.90
2023-02-13T19:24:42.985Z,12.90
2023-02-13T19:27:10.811Z,14.20
2023-02-13T19:29:39.219Z,13.10
2023-02-13T19:32:09.012Z,13.60
2023-02-13T19:34:38.692Z,12.80
2023-02-13T19:37:35.784Z,13.80
2023-02-13T19:40:12.758Z,15.00
2023-02-13T19:42:40.533Z,13.60
2023-02-13T19:45:09.625Z,15.20
2023-02-13T19:47:39.848Z,13.10
2023-02-13T19:50:07.186Z,15.00
2023-02-13T19:52:34.317Z,13.60
2023-02-13T19:55:01.914Z,13.40
2023-02-13T19:57:29.435Z,16.40
2023-02-13T20:00:19.089Z,14.90
2023-02-13T20:02:48.174Z,14.30
2023-02-13T20:05:16.304Z,14.40
2023-02-13T20:07:44.521Z,15.00
2023-02-13T20:10:14.049Z,14.40
2023-02-13T20:12:41.428Z,14.00
2023-02-13T20:15:10.012Z,13.10
2023-02-13T20:17:40.900Z,11.70
2023-02-13T20:20:09.321Z,15.40
2023-02-13T20:22:39.011Z,13.10
2023-02-13T20:25:10.655Z,14.50
2023-02-13T20:27:42.652Z,15.00
2023-02-13T20:30:14.037Z,14.30
2023-02-13T20:32:43.785Z,15.70
2023-02-13T20:35:12.041Z,14.70
2023-02-13T20:37:39.510Z,14.00
2023-02-13T20:40:09.977Z,13.20
2023-02-13T20:42:38.038Z,14.50
2023-02-13T20:45:06.725Z,13.10
2023-02-13T20:47:34.818Z,11.50
2023-02-13T20:50:03.588Z,12.80
2023-02-13T20:52:34.335Z,14.40
2023-02-13T20:55:03.644Z,14.30
2023-02-13T20:57:35.620Z,14.70
2023-02-13T21:00:05.005Z,13.70
2023-02-13T21:02:33.317Z,13.80
2023-02-13T21:05:01.016Z,15.10
2023-02-13T21:07:31.800Z,14.10
2023-02-13T21:09:59.032Z,12.60
2023-02-13T21:12:27.486Z,13.80
2023-02-13T21:14:55.515Z,12.60
2023-02-13T21:17:23.047Z,12.00
2023-02-13T21:19:50.338Z,11.30
2023-02-13T21:22:17.849Z,12.30
2023-02-13T21:24:52.245Z,11.80
2023-02-13T21:27:21.943Z,11.90
2023-02-13T21:29:51.045Z,11.30
2023-02-13T21:32:20.744Z,12.30
2023-02-13T21:34:47.886Z,11.10
2023-02-13T21:37:15.024Z,11.50
2023-02-13T21:39:42.086Z,11.30
2023-02-13T21:42:25.619Z,11.10
2023-02-13T21:44:53.497Z,11.70
2023-02-13T21:47:21.075Z,10.60
2023-02-13T21:49:48.683Z,10.50
2023-02-13T21:52:18.223Z,10.70
2023-02-13T21:54:45.351Z,10.10
2023-02-13T21:57:13.311Z,9.60
2023-02-13T21:59:40.687Z,9.40
2023-02-13T22:02:08.870Z,9.40
2023-02-13T22:04:41.347Z,9.80
2023-02-13T22:07:10.206Z,10.00
2023-02-13T22:09:39.148Z,9.80
2023-02-13T22:12:06.131Z,9.80
2023-02-13T22:14:34.536Z,9.10
2023-02-13T22:17:02.641Z,8.60
2023-02-13T22:19:34.314Z,9.90
2023-02-13T22:22:02.674Z,10.80
2023-02-13T22:24:29.925Z,10.20
2023-02-13T22:26:58.226Z,10.80
2023-02-13T22:29:26.684Z,9.90
2023-02-13T22:31:53.934Z,10.30
2023-02-13T22:34:26.394Z,9.00
2023-02-13T22:36:55.969Z,9.40
2023-02-13T22:39:24.393Z,9.10
2023-02-13T22:41:56.686Z,9.50
2023-02-13T22:44:24.053Z,9.00
2023-02-13T22:46:51.105Z,10.90
2023-02-13T22:49:17.865Z,9.50
2023-02-13T22:51:45.157Z,9.10
2023-02-13T22:54:13.343Z,9.20
2023-02-13T22:56:43.854Z,10.90
2023-02-13T22:59:14.283Z,9.20
2023-02-13T23:01:43.264Z,8.10
2023-02-13T23:04:11.678Z,9.30
2023-02-13T23:06:42.877Z,9.70
2023-02-13T23:09:11.246Z,8.80
2023-02-13T23:11:57.164Z,9.00
2023-02-13T23:14:25.309Z,10.40
2023-02-13T23:17:12.023Z,9.70
2023-02-13T23:19:41.955Z,10.40
2023-02-13T23:22:12.012Z,9.00
2023-02-13T23:24:39.678Z,10.00
2023-02-13T23:27:07.510Z,7.70
2023-02-13T23:29:34.737Z,9.80
2023-02-13T23:32:11.398Z,9.90
2023-02-13T23:34:39.383Z,11.10
2023-02-13T23:37:06.428Z,12.60
2023-02-13T23:39:33.606Z,10.60
2023-02-13T23:42:01.328Z,11.00
2023-02-13T23:44:28.246Z,10.50
2023-02-13T23:46:56.389Z,11.40
2023-02-13T23:49:25.033Z,10.40
2023-02-13T23:51:52.195Z,10.10
2023-02-13T23:54:22.270Z,10.60
2023-02-13T23:56:50.293Z,9.10
2023-02-13T23:59:17.785Z,10.70
